createdAt,value
2018-05-11T00:00:19.878Z,32.30
2018-05-11T00:02:48.789Z,26.90
2018-05-11T00:05:18.381Z,28.27
2018-05-11T00:07:47.231Z,23.20
2018-05-11T00:10:16.063Z,26.77
2018-05-11T00:12:46.064Z,22.07
2018-05-11T00:15:14.913Z,31.47
2018-05-11T00:17:43.837Z,25.80
2018-05-11T00:20:13.437Z,27.00
2018-05-11T00:22:42.990Z,24.80
2018-05-11T00:25:11.802Z,34.03
2018-05-11T00:27:41.522Z,22.67
2018-05-11T00:30:11.122Z,30.47
2018-05-11T00:32:39.940Z,24.63
2018-05-11T00:35:08.791Z,29.67
2018-05-11T00:37:38.349Z,25.00
2018-05-11T00:40:07.918Z,27.83
2018-05-11T00:42:36.788Z,21.93
2018-05-11T00:45:05.689Z,33.30
2018-05-11T00:47:34.530Z,40.00
2018-05-11T00:50:03.362Z,36.30
2018-05-11T00:52:32.942Z,36.00
2018-05-11T00:55:19.448Z,33.90
2018-05-11T00:57:48.286Z,37.87
2018-05-11T01:00:17.132Z,35.13
2018-05-11T01:02:45.903Z,37.13
2018-05-11T01:05:14.738Z,35.10
2018-05-11T01:07:43.537Z,27.07
2018-05-11T01:10:12.359Z,37.33
2018-05-11T01:12:41.181Z,27.53
2018-05-11T01:15:10.783Z,25.10
2018-05-11T01:17:40.360Z,26.67
2018-05-11T01:20:09.173Z,30.10
2018-05-11T01:22:37.994Z,35.67
2018-05-11T01:25:06.915Z,35.43
2018-05-11T01:27:36.495Z,32.87
2018-05-11T01:30:05.302Z,39.87
2018-05-11T01:32:34.205Z,40.63
2018-05-11T01:35:03.093Z,37.37
2018-05-11T01:37:32.635Z,39.33
2018-05-11T01:40:01.445Z,28.50
2018-05-11T01:42:30.263Z,26.13
2018-05-11T01:44:59.158Z,32.87
2018-05-11T01:47:27.883Z,36.60
2018-05-11T01:49:56.721Z,24.00
2018-05-11T01:52:25.529Z,35.50
2018-05-11T01:54:55.114Z,38.30
2018-05-11T01:57:24.015Z,38.67
2018-05-11T01:59:52.817Z,39.17
2018-05-11T02:02:22.402Z,34.03
2018-05-11T02:04:51.222Z,33.60
2018-05-11T02:07:20.057Z,40.03
2018-05-11T02:09:48.851Z,34.57
2018-05-11T02:12:17.674Z,33.57
2018-05-11T02:14:46.500Z,33.07
2018-05-11T02:17:15.346Z,34.70
2018-05-11T02:19:44.945Z,33.10
2018-05-11T02:22:14.547Z,29.33
2018-05-11T02:24:43.334Z,33.83
2018-05-11T02:27:12.155Z,37.50
2018-05-11T02:29:40.946Z,36.33
2018-05-11T02:32:11.346Z,36.60
2018-05-11T02:34:40.908Z,38.23
2018-05-11T02:37:09.718Z,36.30
2018-05-11T02:39:38.554Z,34.03
2018-05-11T02:42:08.220Z,39.57
2018-05-11T02:44:37.034Z,32.33
2018-05-11T02:47:06.603Z,37.67
2018-05-11T02:49:35.520Z,34.23
2018-05-11T02:52:05.100Z,34.63
2018-05-11T02:54:33.990Z,40.63
2018-05-11T02:57:03.592Z,39.73
2018-05-11T02:59:33.172Z,32.43
2018-05-11T03:02:02.011Z,28.87
2018-05-11T03:04:30.935Z,40.77
2018-05-11T03:07:00.489Z,52.53
2018-05-11T03:09:29.293Z,40.37
2018-05-11T03:11:58.128Z,27.37
2018-05-11T03:14:27.706Z,48.07
2018-05-11T03:16:56.543Z,42.90
2018-05-11T03:19:25.355Z,39.37
2018-05-11T03:21:54.181Z,37.53
2018-05-11T03:24:23.021Z,33.57
2018-05-11T03:26:51.819Z,40.97
2018-05-11T03:29:20.629Z,35.20
2018-05-11T03:31:49.461Z,30.07
2018-05-11T03:34:18.284Z,37.40
2018-05-11T03:36:47.105Z,38.67
2018-05-11T03:39:15.910Z,36.00
2018-05-11T03:41:45.532Z,33.03
2018-05-11T03:44:14.341Z,36.37
2018-05-11T03:46:43.127Z,44.80
2018-05-11T03:49:12.149Z,34.33
2018-05-11T03:51:41.723Z,37.20
2018-05-11T03:54:11.304Z,41.50
2018-05-11T03:56:40.904Z,43.00
2018-05-11T03:59:09.875Z,40.57
2018-05-11T04:01:56.446Z,44.00
2018-05-11T04:04:43.083Z,41.40
2018-05-11T04:07:29.639Z,43.80
2018-05-11T04:09:58.457Z,40.53
2018-05-11T04:12:28.293Z,45.03
2018-05-11T04:14:57.092Z,43.93
2018-05-11T04:17:25.909Z,43.10
2018-05-11T04:19:54.727Z,45.87
2018-05-11T04:22:23.527Z,40.13
2018-05-11T04:24:53.115Z,38.60
2018-05-11T04:27:22.699Z,42.83
2018-05-11T04:29:51.546Z,33.17
2018-05-11T04:32:20.378Z,45.00
2018-05-11T04:34:49.205Z,40.13
2018-05-11T04:37:18.090Z,38.97
2018-05-11T04:39:46.899Z,48.63
2018-05-11T04:42:15.687Z,48.27
2018-05-11T04:44:45.303Z,51.70
2018-05-11T04:47:14.139Z,52.07
2018-05-11T04:49:43.021Z,48.30
2018-05-11T04:52:11.865Z,48.90
2018-05-11T04:54:40.713Z,42.87
2018-05-11T04:57:10.317Z,48.07
2018-05-11T04:59:39.907Z,46.03
2018-05-11T05:02:08.739Z,48.37
2018-05-11T05:04:37.528Z,47.30
2018-05-11T05:07:06.339Z,38.97
2018-05-11T05:09:35.203Z,28.53
2018-05-11T05:12:04.063Z,30.17
2018-05-11T05:14:32.887Z,34.63
2018-05-11T05:17:01.707Z,41.80
2018-05-11T05:19:30.515Z,48.13
2018-05-11T05:22:00.119Z,46.20
2018-05-11T05:24:28.955Z,40.03
2018-05-11T05:26:57.765Z,43.87
2018-05-11T05:29:26.613Z,45.00
2018-05-11T05:31:55.433Z,35.97
2018-05-11T05:34:24.305Z,38.43
2018-05-11T05:36:53.126Z,40.40
2018-05-11T05:39:21.951Z,35.00
2018-05-11T05:41:51.522Z,30.83
2018-05-11T05:44:20.370Z,30.27
2018-05-11T05:46:49.971Z,43.73
2018-05-11T05:49:19.562Z,36.63
2018-05-11T05:51:48.479Z,38.07
2018-05-11T05:54:18.094Z,46.50
2018-05-11T05:56:47.658Z,38.67
2018-05-11T05:59:16.724Z,38.87
2018-05-11T06:01:45.557Z,42.83
2018-05-11T06:04:14.458Z,37.57
2018-05-11T06:06:43.278Z,34.97
2018-05-11T06:09:12.142Z,37.40
2018-05-11T06:11:41.743Z,32.07
2018-05-11T06:14:10.556Z,31.57
2018-05-11T06:16:39.393Z,29.40
2018-05-11T06:19:08.230Z,24.70
2018-05-11T06:21:37.076Z,36.80
2018-05-11T06:24:05.909Z,40.37
2018-05-11T06:26:35.510Z,24.00
2018-05-11T06:29:04.392Z,22.63
2018-05-11T06:31:33.206Z,39.33
2018-05-11T06:34:02.806Z,28.23
2018-05-11T06:36:32.426Z,33.80
2018-05-11T06:39:01.990Z,41.93
2018-05-11T06:41:30.895Z,31.40
2018-05-11T06:44:00.464Z,29.13
2018-05-11T06:46:29.311Z,52.27
2018-05-11T06:48:58.887Z,44.43
2018-05-11T06:51:27.686Z,38.73
2018-05-11T06:53:56.535Z,39.23
2018-05-11T06:56:25.348Z,47.70
2018-05-11T06:58:54.955Z,41.40
2018-05-11T07:01:24.529Z,39.43
2018-05-11T07:03:53.333Z,43.23
2018-05-11T07:06:22.147Z,38.03
2018-05-11T07:08:51.080Z,35.47
2018-05-11T07:11:20.639Z,53.10
2018-05-11T07:13:49.465Z,33.87
2018-05-11T07:16:18.381Z,50.90
2018-05-11T07:18:47.957Z,45.33
2018-05-11T07:21:16.765Z,36.50
2018-05-11T07:23:46.359Z,42.50
2018-05-11T07:26:15.157Z,36.77
2018-05-11T07:28:44.748Z,32.53
2018-05-11T07:31:13.555Z,42.30
2018-05-11T07:33:42.388Z,38.47
2018-05-11T07:36:11.528Z,40.50
2018-05-11T07:38:40.350Z,37.97
2018-05-11T07:41:09.177Z,34.30
2018-05-11T07:43:38.740Z,35.43
2018-05-11T07:46:07.612Z,37.20
2018-05-11T07:48:36.588Z,27.30
2018-05-11T07:51:05.404Z,43.30
2018-05-11T07:53:34.210Z,40.97
2018-05-11T07:56:03.058Z,29.23
2018-05-11T07:58:31.864Z,21.77
2018-05-11T08:01:00.679Z,29.53
2018-05-11T08:03:29.917Z,22.93
2018-05-11T08:05:59.514Z,34.30
2018-05-11T08:08:28.332Z,35.90
2018-05-11T08:10:57.156Z,36.23
2018-05-11T08:13:26.768Z,30.93
2018-05-11T08:15:55.579Z,32.63
2018-05-11T08:18:25.180Z,40.43
2018-05-11T08:20:54.766Z,31.37
2018-05-11T08:23:23.942Z,29.20
2018-05-11T08:25:52.791Z,26.83
2018-05-11T08:28:21.599Z,33.10
2018-05-11T08:30:51.183Z,31.10
2018-05-11T08:33:19.999Z,30.60
2018-05-11T08:35:49.674Z,34.80
2018-05-11T08:38:19.229Z,25.00
2018-05-11T08:40:48.035Z,23.83
2018-05-11T08:43:16.823Z,27.40
2018-05-11T08:45:45.659Z,23.50
2018-05-11T08:48:14.499Z,18.70
2018-05-11T08:50:44.776Z,18.00
2018-05-11T08:53:14.248Z,33.37
2018-05-11T08:55:43.081Z,22.27
2018-05-11T08:58:11.905Z,24.27
2018-05-11T09:00:40.722Z,20.80
2018-05-11T09:03:09.539Z,20.87
2018-05-11T09:05:38.349Z,19.70
2018-05-11T09:08:07.179Z,18.47
2018-05-11T09:10:36.018Z,15.87
2018-05-11T09:13:04.812Z,17.80
2018-05-11T09:15:33.719Z,18.70
2018-05-11T09:18:03.343Z,15.63
2018-05-11T09:20:32.134Z,14.27
2018-05-11T09:23:02.457Z,11.47
2018-05-11T09:25:31.288Z,13.10
2018-05-11T09:28:00.667Z,16.53
2018-05-11T09:30:29.462Z,15.40
2018-05-11T09:32:58.604Z,14.10
2018-05-11T09:35:28.193Z,13.20
2018-05-11T09:37:58.502Z,13.50
2018-05-11T09:40:27.312Z,10.60
2018-05-11T09:42:57.500Z,14.13
2018-05-11T09:45:26.310Z,12.90
2018-05-11T09:47:55.873Z,11.77
2018-05-11T09:50:24.695Z,10.63
2018-05-11T09:52:53.939Z,10.93
2018-05-11T09:55:22.731Z,11.00
2018-05-11T09:57:51.553Z,12.63
2018-05-11T10:00:26.333Z,10.53
2018-05-11T10:02:55.129Z,10.90
2018-05-11T10:05:23.933Z,9.67
2018-05-11T10:07:52.813Z,19.37
2018-05-11T10:10:21.587Z,15.17
2018-05-11T10:12:50.396Z,13.10
2018-05-11T10:15:19.211Z,11.20
2018-05-11T10:17:48.025Z,11.83
2018-05-11T10:20:16.824Z,8.80
2018-05-11T10:22:45.652Z,10.97
2018-05-11T10:25:14.471Z,7.80
2018-05-11T10:27:44.080Z,10.37
2018-05-11T10:30:13.646Z,10.30
2018-05-11T10:32:42.570Z,8.50
2018-05-11T10:35:12.138Z,12.57
2018-05-11T10:37:40.978Z,12.73
2018-05-11T10:40:10.547Z,9.97
2018-05-11T10:42:39.348Z,11.53
2018-05-11T10:45:08.162Z,11.83
2018-05-11T10:47:37.744Z,10.37
2018-05-11T10:50:06.750Z,13.17
2018-05-11T10:52:35.568Z,9.00
2018-05-11T10:55:04.427Z,9.73
2018-05-11T10:57:33.226Z,8.87
2018-05-11T11:00:02.830Z,13.37
2018-05-11T11:02:32.441Z,15.77
2018-05-11T11:05:01.272Z,12.00
2018-05-11T11:07:30.866Z,9.83
2018-05-11T11:10:00.467Z,10.73
2018-05-11T11:12:29.290Z,10.40
2018-05-11T11:14:58.115Z,19.70
2018-05-11T11:17:27.721Z,16.23
2018-05-11T11:19:57.390Z,9.73
2018-05-11T11:22:26.152Z,11.47
2018-05-11T11:24:54.970Z,11.43
2018-05-11T11:27:24.578Z,18.57
2018-05-11T11:29:54.148Z,22.43
2018-05-11T11:32:23.021Z,17.33
2018-05-11T11:34:51.849Z,17.00
2018-05-11T11:37:21.414Z,21.97
2018-05-11T11:39:50.232Z,29.00
2018-05-11T11:42:19.847Z,30.77
2018-05-11T11:44:48.650Z,23.30
2018-05-11T11:47:17.472Z,27.83
2018-05-11T11:49:46.366Z,24.73
2018-05-11T11:52:15.970Z,26.33
2018-05-11T11:54:44.804Z,27.90
2018-05-11T11:57:13.616Z,22.73
2018-05-11T11:59:43.188Z,21.73
2018-05-11T12:02:12.024Z,18.03
2018-05-11T12:04:40.821Z,21.50
2018-05-11T12:07:10.430Z,24.87
2018-05-11T12:09:39.257Z,23.10
2018-05-11T12:12:08.825Z,19.67
2018-05-11T12:14:38.045Z,14.10
2018-05-11T12:17:07.605Z,11.47
2018-05-11T12:19:36.416Z,19.50
2018-05-11T12:22:05.254Z,19.30
2018-05-11T12:24:34.067Z,16.47
2018-05-11T12:27:03.684Z,12.27
2018-05-11T12:29:33.254Z,12.60
2018-05-11T12:32:02.051Z,13.67
2018-05-11T12:34:30.937Z,10.50
2018-05-11T12:36:59.862Z,8.73
2018-05-11T12:39:28.659Z,7.37
2018-05-11T12:41:58.236Z,9.13
2018-05-11T12:44:27.827Z,16.80
2018-05-11T12:46:56.669Z,15.43
2018-05-11T12:49:25.585Z,19.80
2018-05-11T12:51:54.339Z,14.40
2018-05-11T12:54:23.271Z,13.33
2018-05-11T12:56:52.828Z,13.03
2018-05-11T12:59:21.650Z,14.20
2018-05-11T13:01:51.255Z,12.27
2018-05-11T13:04:20.072Z,16.80
2018-05-11T13:06:48.923Z,16.27
2018-05-11T13:09:17.734Z,13.07
2018-05-11T13:11:46.633Z,12.60
2018-05-11T13:14:16.261Z,10.07
2018-05-11T13:16:45.819Z,15.80
2018-05-11T13:19:14.636Z,12.30
2018-05-11T13:21:44.258Z,14.60
2018-05-11T13:24:14.712Z,21.40
2018-05-11T13:26:43.522Z,19.30
2018-05-11T13:29:12.339Z,15.83
2018-05-11T13:31:41.141Z,17.23
2018-05-11T13:34:09.965Z,14.57
2018-05-11T13:36:38.817Z,13.20
2018-05-11T13:39:08.405Z,10.37
2018-05-11T13:41:37.301Z,18.67
2018-05-11T13:44:06.153Z,17.77
2018-05-11T13:46:35.761Z,13.03
2018-05-11T13:49:05.315Z,21.00
2018-05-11T13:51:34.143Z,23.57
2018-05-11T13:54:03.009Z,17.53
2018-05-11T13:56:31.851Z,19.00
2018-05-11T13:59:01.447Z,13.63
2018-05-11T14:01:31.039Z,13.83
2018-05-11T14:04:00.633Z,16.33
2018-05-11T14:06:30.200Z,13.70
2018-05-11T14:08:59.002Z,12.40
2018-05-11T14:11:27.839Z,13.20
2018-05-11T14:13:56.703Z,14.43
2018-05-11T14:16:26.279Z,19.57
2018-05-11T14:18:56.622Z,13.83
2018-05-11T14:21:26.185Z,13.27
2018-05-11T14:23:55.001Z,15.57
2018-05-11T14:26:23.794Z,15.27
2018-05-11T14:28:52.632Z,12.93
2018-05-11T14:31:22.212Z,9.87
2018-05-11T14:33:50.991Z,9.43
2018-05-11T14:36:19.853Z,8.53
2018-05-11T14:38:49.430Z,7.17
2018-05-11T14:41:18.281Z,6.80
2018-05-11T14:43:47.136Z,8.43
2018-05-11T14:46:16.709Z,13.67
2018-05-11T14:48:45.543Z,13.63
2018-05-11T14:51:14.356Z,11.67
2018-05-11T14:53:43.166Z,12.50
2018-05-11T14:56:11.989Z,7.17
2018-05-11T14:58:40.916Z,6.70
2018-05-11T15:01:09.646Z,6.70
2018-05-11T15:03:38.424Z,5.97
2018-05-11T15:06:07.221Z,6.97
2018-05-11T15:08:36.830Z,4.87
2018-05-11T15:11:05.708Z,5.20
2018-05-11T15:13:34.543Z,3.93
2018-05-11T15:16:03.349Z,4.77
2018-05-11T15:18:32.252Z,4.67
2018-05-11T15:21:01.901Z,11.87
2018-05-11T15:23:31.492Z,8.17
2018-05-11T15:26:01.063Z,7.70
2018-05-11T15:28:29.902Z,12.73
2018-05-11T15:30:58.767Z,16.97
2018-05-11T15:33:27.728Z,10.80
2018-05-11T15:35:56.525Z,10.13
2018-05-11T15:38:25.338Z,9.50
2018-05-11T15:40:54.158Z,7.40
2018-05-11T15:43:22.949Z,10.20
2018-05-11T15:45:51.852Z,7.40
2018-05-11T15:48:20.598Z,8.10
2018-05-11T15:50:49.397Z,8.87
2018-05-11T15:53:18.255Z,9.33
2018-05-11T15:55:47.152Z,9.53
2018-05-11T15:58:16.758Z,10.77
2018-05-11T16:00:45.583Z,9.47
2018-05-11T16:03:14.420Z,8.03
2018-05-11T16:05:43.318Z,8.80
2018-05-11T16:08:12.044Z,14.93
2018-05-11T16:10:41.656Z,9.60
2018-05-11T16:13:10.477Z,9.13
2018-05-11T16:15:39.303Z,9.17
2018-05-11T16:18:08.135Z,9.60
2018-05-11T16:20:37.049Z,9.27
2018-05-11T16:23:05.793Z,9.87
2018-05-11T16:25:34.615Z,10.13
2018-05-11T16:28:03.557Z,9.77
2018-05-11T16:30:32.579Z,8.10
2018-05-11T16:33:01.388Z,7.93
2018-05-11T16:35:30.179Z,6.37
2018-05-11T16:37:59.755Z,12.00
2018-05-11T16:40:28.668Z,11.03
2018-05-11T16:42:57.493Z,9.37
2018-05-11T16:45:26.294Z,8.50
2018-05-11T16:47:55.098Z,8.43
2018-05-11T16:50:23.912Z,8.50
2018-05-11T16:52:53.153Z,10.70
2018-05-11T16:55:21.987Z,6.77
2018-05-11T16:57:50.797Z,6.37
2018-05-11T17:00:19.762Z,16.07
2018-05-11T17:02:48.573Z,7.70
2018-05-11T17:05:17.372Z,5.10
2018-05-11T17:07:46.192Z,4.13
2018-05-11T17:10:14.993Z,4.40
2018-05-11T17:12:43.807Z,5.13
2018-05-11T17:15:12.747Z,6.83
2018-05-11T17:17:41.604Z,7.17
2018-05-11T17:20:11.189Z,7.40
2018-05-11T17:22:40.029Z,8.63
2018-05-11T17:25:08.821Z,7.00
2018-05-11T17:27:37.658Z,8.97
2018-05-11T17:30:06.561Z,9.23
2018-05-11T17:32:36.079Z,6.63
2018-05-11T17:35:04.898Z,13.10
2018-05-11T17:37:34.500Z,8.03
2018-05-11T17:40:03.297Z,6.43
2018-05-11T17:42:32.879Z,6.93
2018-05-11T17:45:01.794Z,6.43
2018-05-11T17:47:31.370Z,5.93
2018-05-11T17:50:07.302Z,5.27
2018-05-11T17:52:36.088Z,4.23
2018-05-11T17:55:04.882Z,4.03
2018-05-11T17:57:33.728Z,3.13
2018-05-11T18:00:02.557Z,2.50
2018-05-11T18:02:31.372Z,4.20
2018-05-11T18:05:00.174Z,4.10
2018-05-11T18:07:29.016Z,3.77
2018-05-11T18:09:58.049Z,3.37
2018-05-11T18:12:26.897Z,4.27
2018-05-11T18:14:55.658Z,4.30
2018-05-11T18:17:25.233Z,4.83
2018-05-11T18:19:54.060Z,4.50
2018-05-11T18:22:22.886Z,7.67
2018-05-11T18:24:52.470Z,5.60
2018-05-11T18:27:21.257Z,4.93
2018-05-11T18:29:50.844Z,5.50
2018-05-11T18:32:19.655Z,5.60
2018-05-11T18:34:48.478Z,5.07
2018-05-11T18:37:18.071Z,4.67
2018-05-11T18:39:46.989Z,3.40
2018-05-11T18:42:15.747Z,3.37
2018-05-11T18:44:44.561Z,4.00
2018-05-11T18:47:13.371Z,7.30
2018-05-11T18:49:43.146Z,7.10
2018-05-11T18:52:12.718Z,6.00
2018-05-11T18:54:41.910Z,5.63
2018-05-11T18:57:11.114Z,5.47
2018-05-11T18:59:39.936Z,13.70
2018-05-11T19:02:09.545Z,12.33
2018-05-11T19:04:38.403Z,12.87
2018-05-11T19:07:07.199Z,9.73
2018-05-11T19:09:36.003Z,13.37
2018-05-11T19:12:04.832Z,10.83
2018-05-11T19:14:34.468Z,7.90
2018-05-11T19:17:03.353Z,7.63
2018-05-11T19:19:32.171Z,6.47
2018-05-11T19:22:01.318Z,6.67
2018-05-11T19:24:30.152Z,8.83
2018-05-11T19:26:59.763Z,10.13
2018-05-11T19:29:28.565Z,7.73
2018-05-11T19:31:57.403Z,7.50
2018-05-11T19:34:26.217Z,7.40
2018-05-11T19:36:55.046Z,6.67
2018-05-11T19:41:53.397Z,7.00
2018-05-11T19:44:22.994Z,10.43
2018-05-11T19:46:52.617Z,11.27
2018-05-11T19:49:21.392Z,9.70
2018-05-11T19:51:50.979Z,8.67
2018-05-11T19:54:19.888Z,7.97
2018-05-11T19:56:48.698Z,11.50
2018-05-11T19:59:18.312Z,9.97
2018-05-11T20:01:47.138Z,10.10
2018-05-11T20:04:16.750Z,8.33
2018-05-11T20:06:46.390Z,10.73
2018-05-11T20:09:15.338Z,8.83
2018-05-11T20:11:44.882Z,8.50
2018-05-11T20:14:13.713Z,11.73
2018-05-11T20:16:42.547Z,9.23
2018-05-11T20:19:11.383Z,13.60
2018-05-11T20:21:40.220Z,9.83
2018-05-11T20:24:09.066Z,11.63
2018-05-11T20:26:37.944Z,14.57
2018-05-11T20:29:06.788Z,11.70
2018-05-11T20:31:35.628Z,14.40
2018-05-11T20:34:05.229Z,14.27
2018-05-11T20:36:34.813Z,13.17
2018-05-11T20:39:03.643Z,11.73
2018-05-11T20:41:32.607Z,10.60
2018-05-11T20:44:01.328Z,10.63
2018-05-11T20:46:30.159Z,11.13
2018-05-11T20:48:58.984Z,12.13
2018-05-11T20:51:27.822Z,17.00
2018-05-11T20:53:57.400Z,18.90
2018-05-11T20:56:26.253Z,16.77
2018-05-11T20:58:55.064Z,22.20
2018-05-11T21:01:23.871Z,21.27
2018-05-11T21:03:53.462Z,17.70
2018-05-11T21:06:22.293Z,15.43
2018-05-11T21:08:51.862Z,17.63
2018-05-11T21:11:20.682Z,16.57
2018-05-11T21:13:50.259Z,17.97
2018-05-11T21:16:19.071Z,18.90
2018-05-11T21:18:48.657Z,15.53
2018-05-11T21:21:17.491Z,14.97
2018-05-11T21:23:46.279Z,14.17
2018-05-11T21:26:15.132Z,12.70
2018-05-11T21:28:43.983Z,12.17
2018-05-11T21:31:13.613Z,15.23
2018-05-11T21:33:42.421Z,19.73
2018-05-11T21:36:11.242Z,23.97
2018-05-11T21:38:40.048Z,17.10
2018-05-11T21:41:09.033Z,17.30
2018-05-11T21:43:38.223Z,17.80
2018-05-11T21:46:07.823Z,14.03
2018-05-11T21:48:36.667Z,15.83
2018-05-11T21:51:05.499Z,15.70
2018-05-11T21:53:35.053Z,14.80
2018-05-11T21:56:04.529Z,13.37
2018-05-11T21:58:33.331Z,13.13
2018-05-11T22:01:02.132Z,13.63
2018-05-11T22:03:30.979Z,13.43
2018-05-11T22:05:59.848Z,16.03
2018-05-11T22:08:28.638Z,14.90
2018-05-11T22:10:58.495Z,18.07
2018-05-11T22:13:27.393Z,17.57
2018-05-11T22:15:56.144Z,14.07
2018-05-11T22:18:24.951Z,14.47
2018-05-11T22:20:53.812Z,17.60
2018-05-11T22:23:23.000Z,15.73
2018-05-11T22:25:52.318Z,14.10
2018-05-11T22:28:21.130Z,14.20
2018-05-11T22:30:50.724Z,12.43
2018-05-11T22:33:19.944Z,18.13
2018-05-11T22:35:48.756Z,17.50
2018-05-11T22:38:17.578Z,19.87
2018-05-11T22:40:47.162Z,19.20
2018-05-11T22:43:17.741Z,16.13
2018-05-11T22:45:47.301Z,19.67
2018-05-11T22:48:16.140Z,20.93
2018-05-11T22:50:44.963Z,18.40
2018-05-11T22:53:13.779Z,19.17
2018-05-11T22:55:42.600Z,21.73
2018-05-11T22:58:11.392Z,16.30
2018-05-11T23:00:41.221Z,15.90
2018-05-11T23:03:10.191Z,15.07
2018-05-11T23:05:39.026Z,17.20
2018-05-11T23:08:07.855Z,18.50
2018-05-11T23:10:36.675Z,15.53
2018-05-11T23:13:05.760Z,17.50
2018-05-11T23:15:35.891Z,16.13
2018-05-11T23:18:05.536Z,13.53
2018-05-11T23:20:34.356Z,13.30
2018-05-11T23:23:03.135Z,10.87
2018-05-11T23:25:32.016Z,16.37
2018-05-11T23:28:00.936Z,13.27
2018-05-11T23:30:30.517Z,12.37
2018-05-11T23:32:59.364Z,11.07
2018-05-11T23:35:28.989Z,11.47
2018-05-11T23:37:58.556Z,11.63
2018-05-11T23:40:27.379Z,10.40
2018-05-11T23:42:56.612Z,10.93
2018-05-11T23:45:26.158Z,12.13
2018-05-11T23:47:54.957Z,10.93
2018-05-11T23:50:23.820Z,11.83
2018-05-11T23:52:52.625Z,11.43
2018-05-11T23:55:21.448Z,10.17
2018-05-11T23:57:50.366Z,11.50
